Time;durP1;ratioP1;P1;durP2;ratioP2;P2;SDS_P1;SDS_P2;PMS_P1;PMS_P2;Temp;Humidity;BMP_temperature;BMP_pressure;BME280_temperature;BME280_humidity;BME280_pressure;Samples;Min_cycle;Max_cycle;Signal;HPM_P1;HPM_P2
2023/08/28 00:01:32;;;;;;;1.00;1.00;;;;;;;;;;5040376;28;20032;-81
2023/08/28 00:03:57;;;;;;;1.02;1.02;;;;;;;;;;5036266;28;20017;-80
2023/08/28 00:06:22;;;;;;;3.90;0.93;;;;;;;;;;5035182;28;20025;-81
2023/08/28 00:08:48;;;;;;;2.00;1.08;;;;;;;;;;5041470;28;20036;-81
2023/08/28 00:11:13;;;;;;;0.80;0.80;;;;;;;;;;5032197;28;20029;-81
2023/08/28 00:13:38;;;;;;;2.28;1.00;;;;;;;;;;5038550;28;20028;-81
2023/08/28 00:16:04;;;;;;;1.05;1.00;;;;;;;;;;5033094;28;20022;-81
2023/08/28 00:18:29;;;;;;;1.33;0.88;;;;;;;;;;5035378;28;20114;-80
2023/08/28 00:20:55;;;;;;;0.90;0.88;;;;;;;;;;5033502;28;20030;-80
2023/08/28 00:23:21;;;;;;;0.88;0.88;;;;;;;;;;5037993;28;20328;-82
2023/08/28 00:25:46;;;;;;;1.33;0.80;;;;;;;;;;5036119;28;20088;-81
2023/08/28 00:28:11;;;;;;;3.42;1.95;;;;;;;;;;5035465;28;20036;-81
2023/08/28 00:30:37;;;;;;;1.50;0.95;;;;;;;;;;5035145;28;20032;-81
2023/08/28 00:33:03;;;;;;;1.10;1.05;;;;;;;;;;5037175;28;20336;-80
2023/08/28 00:35:28;;;;;;;1.40;1.30;;;;;;;;;;5034784;28;20021;-80
2023/08/28 00:37:54;;;;;;;1.75;1.30;;;;;;;;;;5033545;28;20020;-80
2023/08/28 00:40:19;;;;;;;1.48;1.38;;;;;;;;;;5038075;28;20646;-80
2023/08/28 00:42:45;;;;;;;1.73;1.20;;;;;;;;;;5036028;28;20411;-80
2023/08/28 00:45:10;;;;;;;1.20;1.08;;;;;;;;;;5034312;28;20017;-81
2023/08/28 00:47:36;;;;;;;0.75;0.75;;;;;;;;;;5028674;28;20067;-80
2023/08/28 00:50:03;;;;;;;1.20;1.10;;;;;;;;;;5034247;28;20268;-81
2023/08/28 00:52:28;;;;;;;0.73;0.73;;;;;;;;;;5029866;28;20107;-80
2023/08/28 00:54:53;;;;;;;5.47;1.20;;;;;;;;;;5042717;28;20061;-80
2023/08/28 00:57:19;;;;;;;2.05;1.30;;;;;;;;;;5042530;28;20029;-82
2023/08/28 00:59:44;;;;;;;1.10;1.10;;;;;;;;;;5039537;28;20041;-80
2023/08/28 01:02:10;;;;;;;1.42;1.10;;;;;;;;;;5043816;28;20033;-81
2023/08/28 01:04:35;;;;;;;1.27;1.13;;;;;;;;;;5041641;28;20063;-81
2023/08/28 01:07:26;;;;;;;1.40;1.30;;;;;;;;;;5030064;28;20029;-81
2023/08/28 01:09:51;;;;;;;1.25;1.25;;;;;;;;;;5037136;28;20021;-80
2023/08/28 01:12:45;;;;;;;1.65;1.27;;;;;;;;;;5033768;28;20052;-81
2023/08/28 01:15:20;;;;;;;1.60;1.33;;;;;;;;;;5034502;28;20029;-81
2023/08/28 01:17:48;;;;;;;1.27;0.90;;;;;;;;;;5042191;28;20063;-81
2023/08/28 01:20:15;;;;;;;3.05;1.00;;;;;;;;;;5038246;28;20076;-79
2023/08/28 01:23:08;;;;;;;1.48;1.38;;;;;;;;;;5038616;28;20033;-81
2023/08/28 01:25:35;;;;;;;0.95;0.88;;;;;;;;;;5035149;28;20401;-81
2023/08/28 01:28:00;;;;;;;0.98;0.93;;;;;;;;;;5046851;28;20212;-80
2023/08/28 01:30:26;;;;;;;0.98;0.98;;;;;;;;;;5038414;28;20028;-81
2023/08/28 01:32:51;;;;;;;1.83;1.10;;;;;;;;;;5034467;28;20032;-81
2023/08/28 01:35:20;;;;;;;1.33;1.23;;;;;;;;;;5041225;28;20033;-80
2023/08/28 01:38:19;;;;;;;1.30;1.20;;;;;;;;;;5040957;28;20033;-80
2023/08/28 01:41:19;;;;;;;1.95;1.00;;;;;;;;;;5043477;28;20429;-80
2023/08/28 01:43:47;;;;;;;1.08;0.98;;;;;;;;;;5021414;28;20110;-81
2023/08/28 01:46:14;;;;;;;1.05;1.00;;;;;;;;;;5041477;28;20774;-81
2023/08/28 01:48:53;;;;;;;0.85;0.85;;;;;;;;;;5043729;28;20099;-81
2023/08/28 01:51:19;;;;;;;1.10;1.10;;;;;;;;;;5040349;28;20208;-80
2023/08/28 01:53:46;;;;;;;1.40;1.00;;;;;;;;;;5034204;28;20061;-80
2023/08/28 01:56:11;;;;;;;2.30;1.48;;;;;;;;;;5043986;28;21437;-80
2023/08/28 01:59:06;;;;;;;1.30;1.20;;;;;;;;;;5044270;28;20084;-80
2023/08/28 02:01:31;;;;;;;1.90;1.15;;;;;;;;;;5025965;28;20051;-80
2023/08/28 02:03:57;;;;;;;1.02;1.02;;;;;;;;;;5039908;28;20484;-80
2023/08/28 02:06:22;;;;;;;1.70;1.30;;;;;;;;;;5035886;28;20088;-80
2023/08/28 02:08:47;;;;;;;0.98;0.98;;;;;;;;;;5041613;28;20108;-80
2023/08/28 02:11:13;;;;;;;1.30;1.20;;;;;;;;;;5036047;28;20017;-80
2023/08/28 02:13:38;;;;;;;1.25;1.15;;;;;;;;;;5034801;28;20470;-80
2023/08/28 02:16:04;;;;;;;1.48;1.35;;;;;;;;;;5042531;28;20025;-80
2023/08/28 02:18:30;;;;;;;1.15;1.08;;;;;;;;;;5042472;28;20024;-80
2023/08/28 02:20:55;;;;;;;1.45;1.35;;;;;;;;;;5056169;28;20084;-80
2023/08/28 02:23:21;;;;;;;1.50;1.40;;;;;;;;;;5056792;28;20021;-80
2023/08/28 02:25:48;;;;;;;1.77;1.33;;;;;;;;;;5054146;28;20087;-80
2023/08/28 02:28:14;;;;;;;2.28;1.38;;;;;;;;;;5041538;28;20029;-80
2023/08/28 02:30:40;;;;;;;2.28;1.30;;;;;;;;;;5036658;28;20022;-80
2023/08/28 02:33:05;;;;;;;0.90;0.90;;;;;;;;;;5040074;28;20029;-80
2023/08/28 02:35:31;;;;;;;3.38;1.35;;;;;;;;;;5038941;28;20077;-80
2023/08/28 02:37:56;;;;;;;1.45;1.33;;;;;;;;;;5036493;28;20039;-79
2023/08/28 02:40:21;;;;;;;1.02;1.02;;;;;;;;;;5039061;28;20025;-79
2023/08/28 02:42:47;;;;;;;1.48;1.20;;;;;;;;;;5036161;28;20035;-80
2023/08/28 02:45:12;;;;;;;1.30;1.10;;;;;;;;;;5037056;28;20021;-81
2023/08/28 02:47:37;;;;;;;1.00;1.00;;;;;;;;;;5032803;28;20476;-80
2023/08/28 02:50:06;;;;;;;1.33;1.23;;;;;;;;;;5043663;28;20049;-79
2023/08/28 02:52:32;;;;;;;1.45;1.38;;;;;;;;;;5038137;28;20468;-80
2023/08/28 02:54:57;;;;;;;1.30;1.20;;;;;;;;;;5046939;28;20025;-80
2023/08/28 02:57:22;;;;;;;5.88;1.45;;;;;;;;;;5048970;28;20021;-80
2023/08/28 02:59:48;;;;;;;1.33;1.23;;;;;;;;;;5043267;28;20065;-79
2023/08/28 03:02:13;;;;;;;1.10;1.00;;;;;;;;;;5043332;28;20230;-81
2023/08/28 03:04:38;;;;;;;2.75;1.33;;;;;;;;;;5043312;28;20029;-80
2023/08/28 03:07:04;;;;;;;1.85;1.40;;;;;;;;;;5042716;28;20029;-80
2023/08/28 03:09:29;;;;;;;1.20;1.10;;;;;;;;;;5046088;28;20020;-80
2023/08/28 03:11:55;;;;;;;1.33;1.23;;;;;;;;;;5043334;28;20028;-81
2023/08/28 03:14:21;;;;;;;1.20;1.10;;;;;;;;;;5033995;28;20055;-80
2023/08/28 03:16:46;;;;;;;4.65;1.23;;;;;;;;;;5040480;28;20376;-81
2023/08/28 03:19:11;;;;;;;1.05;1.00;;;;;;;;;;5045803;28;20041;-81
2023/08/28 03:21:37;;;;;;;1.45;1.27;;;;;;;;;;5036098;28;20048;-81
2023/08/28 03:24:02;;;;;;;1.20;1.10;;;;;;;;;;5039940;28;20044;-80
2023/08/28 03:26:29;;;;;;;2.15;1.30;;;;;;;;;;5044751;28;20396;-80
2023/08/28 03:28:54;;;;;;;1.80;1.63;;;;;;;;;;5038958;28;20207;-79
2023/08/28 03:31:21;;;;;;;2.15;1.25;;;;;;;;;;5041900;28;20210;-79
2023/08/28 03:33:47;;;;;;;1.38;1.30;;;;;;;;;;5041713;28;20056;-80
2023/08/28 03:36:13;;;;;;;1.45;1.27;;;;;;;;;;5045445;28;20824;-80
2023/08/28 03:38:38;;;;;;;2.22;1.55;;;;;;;;;;5040542;28;20463;-82
2023/08/28 03:41:03;;;;;;;1.52;1.10;;;;;;;;;;5047338;28;20037;-82
2023/08/28 03:43:29;;;;;;;1.42;1.33;;;;;;;;;;5043311;28;20040;-81
2023/08/28 03:45:54;;;;;;;3.25;1.45;;;;;;;;;;5050890;28;20051;-81
2023/08/28 03:48:19;;;;;;;1.90;1.50;;;;;;;;;;5049367;28;20033;-81
2023/08/28 03:50:45;;;;;;;1.00;1.00;;;;;;;;;;5040722;28;20021;-81
2023/08/28 03:53:11;;;;;;;1.30;1.20;;;;;;;;;;5035555;28;20400;-82
2023/08/28 03:55:37;;;;;;;2.45;1.50;;;;;;;;;;5045707;28;20025;-81
2023/08/28 03:58:03;;;;;;;1.67;1.17;;;;;;;;;;5040482;28;20033;-80
2023/08/28 04:00:32;;;;;;;1.40;1.30;;;;;;;;;;5038671;28;20017;-81
2023/08/28 04:02:58;;;;;;;1.50;1.40;;;;;;;;;;5038489;28;20021;-81
2023/08/28 04:05:24;;;;;;;1.40;1.30;;;;;;;;;;5044752;28;20298;-80
2023/08/28 04:07:50;;;;;;;1.58;1.30;;;;;;;;;;5044458;28;20021;-81
2023/08/28 04:10:15;;;;;;;1.30;1.20;;;;;;;;;;5040733;28;20668;-80
2023/08/28 04:12:41;;;;;;;1.67;1.40;;;;;;;;;;5046583;28;20075;-80
2023/08/28 04:15:10;;;;;;;1.92;1.50;;;;;;;;;;5041270;28;20025;-81
2023/08/28 04:17:35;;;;;;;0.90;0.90;;;;;;;;;;5043524;28;20079;-81
2023/08/28 04:20:12;;;;;;;1.60;1.33;;;;;;;;;;5045928;28;20025;-81
2023/08/28 04:22:44;;;;;;;1.40;1.30;;;;;;;;;;5040350;28;20017;-81
2023/08/28 04:25:10;;;;;;;1.30;1.20;;;;;;;;;;5039995;28;20539;-81
2023/08/28 04:27:37;;;;;;;1.35;1.25;;;;;;;;;;5043210;28;20439;-81
2023/08/28 04:30:04;;;;;;;1.75;1.42;;;;;;;;;;5036671;28;20452;-80
2023/08/28 04:32:29;;;;;;;2.75;1.50;;;;;;;;;;5040277;28;20024;-80
2023/08/28 04:34:54;;;;;;;1.52;1.40;;;;;;;;;;5040325;28;20024;-81
2023/08/28 04:37:20;;;;;;;4.47;1.75;;;;;;;;;;5036433;28;20123;-81
2023/08/28 04:39:45;;;;;;;1.10;1.00;;;;;;;;;;5039789;28;20047;-80
2023/08/28 04:42:10;;;;;;;2.72;1.45;;;;;;;;;;5041038;28;20138;-81
2023/08/28 04:44:36;;;;;;;3.53;1.52;;;;;;;;;;5037017;28;20025;-81
2023/08/28 04:47:02;;;;;;;1.85;1.50;;;;;;;;;;5046317;28;20029;-81
2023/08/28 04:49:27;;;;;;;1.58;1.48;;;;;;;;;;5041253;28;20030;-81
2023/08/28 04:51:52;;;;;;;1.77;1.67;;;;;;;;;;5044333;28;20030;-81
2023/08/28 04:54:18;;;;;;;1.27;1.20;;;;;;;;;;5041383;28;20054;-82
2023/08/28 04:56:43;;;;;;;1.75;1.60;;;;;;;;;;5038908;28;20040;-81
2023/08/28 04:59:08;;;;;;;1.58;1.48;;;;;;;;;;5042376;28;20026;-80
2023/08/28 05:01:34;;;;;;;1.98;1.67;;;;;;;;;;5037823;28;20048;-81
2023/08/28 05:03:59;;;;;;;1.73;1.50;;;;;;;;;;5040707;28;20036;-80
2023/08/28 05:06:24;;;;;;;1.60;1.45;;;;;;;;;;5045469;28;20025;-81
2023/08/28 05:08:50;;;;;;;3.42;1.65;;;;;;;;;;5046532;28;20180;-82
2023/08/28 05:11:15;;;;;;;1.13;1.13;;;;;;;;;;5037575;28;20036;-82
2023/08/28 05:13:40;;;;;;;2.00;1.80;;;;;;;;;;5033699;28;20110;-81
2023/08/28 05:16:06;;;;;;;1.70;1.20;;;;;;;;;;5029200;28;20025;-82
2023/08/28 05:18:31;;;;;;;1.30;1.20;;;;;;;;;;5036543;28;20048;-80
2023/08/28 05:20:56;;;;;;;1.77;1.67;;;;;;;;;;5029656;28;20025;-81
2023/08/28 05:23:25;;;;;;;1.73;1.48;;;;;;;;;;5033649;28;20024;-80
2023/08/28 05:25:57;;;;;;;1.48;1.20;;;;;;;;;;5033193;28;20033;-81
2023/08/28 05:28:22;;;;;;;3.42;1.80;;;;;;;;;;5037240;28;20035;-79
2023/08/28 05:30:47;;;;;;;2.95;1.77;;;;;;;;;;5032557;28;20692;-80
2023/08/28 05:33:13;;;;;;;3.45;1.80;;;;;;;;;;5031504;28;20303;-82
2023/08/28 05:35:38;;;;;;;1.90;1.70;;;;;;;;;;5028852;28;20035;-80
2023/08/28 05:38:05;;;;;;;2.28;2.00;;;;;;;;;;5034520;28;20070;-80
2023/08/28 05:40:30;;;;;;;5.75;2.30;;;;;;;;;;5035191;28;20378;-79
2023/08/28 05:42:56;;;;;;;2.78;2.13;;;;;;;;;;5032941;28;20059;-79
2023/08/28 05:45:21;;;;;;;3.50;1.90;;;;;;;;;;5032215;28;20502;-81
2023/08/28 05:47:47;;;;;;;1.92;1.60;;;;;;;;;;5030281;28;20028;-80
2023/08/28 05:50:12;;;;;;;2.47;2.00;;;;;;;;;;5033953;28;20183;-82
2023/08/28 05:52:38;;;;;;;1.88;1.75;;;;;;;;;;5034306;28;20021;-81
2023/08/28 05:55:05;;;;;;;3.50;2.15;;;;;;;;;;5034034;28;20060;-81
2023/08/28 05:57:30;;;;;;;2.53;2.33;;;;;;;;;;5030793;28;20020;-80
2023/08/28 05:59:55;;;;;;;2.90;1.83;;;;;;;;;;5028486;28;20033;-80
2023/08/28 06:02:21;;;;;;;4.97;2.42;;;;;;;;;;5032371;28;20052;-81
2023/08/28 06:04:47;;;;;;;4.13;2.47;;;;;;;;;;5033166;28;20450;-80
2023/08/28 06:07:13;;;;;;;3.90;2.28;;;;;;;;;;5030719;28;20045;-81
2023/08/28 06:09:38;;;;;;;5.95;2.22;;;;;;;;;;5025332;28;20010;-80
2023/08/28 06:12:04;;;;;;;3.03;2.42;;;;;;;;;;5038507;28;20041;-81
2023/08/28 06:14:29;;;;;;;3.83;2.35;;;;;;;;;;5040518;28;20052;-79
2023/08/28 06:16:55;;;;;;;2.63;2.30;;;;;;;;;;5045828;28;20025;-80
2023/08/28 06:19:20;;;;;;;3.63;2.40;;;;;;;;;;5040746;28;20161;-79
2023/08/28 06:21:45;;;;;;;2.13;2.03;;;;;;;;;;5026774;28;20025;-82
2023/08/28 06:24:14;;;;;;;2.63;2.30;;;;;;;;;;5035070;28;20033;-82
2023/08/28 06:26:41;;;;;;;2.45;2.00;;;;;;;;;;5036309;28;20048;-82
2023/08/28 06:29:06;;;;;;;3.15;2.10;;;;;;;;;;5039848;28;20136;-82
2023/08/28 06:31:32;;;;;;;2.42;2.15;;;;;;;;;;5030087;28;20056;-82
2023/08/28 06:33:57;;;;;;;2.53;2.15;;;;;;;;;;5021153;28;20025;-81
2023/08/28 06:36:22;;;;;;;2.40;2.20;;;;;;;;;;5019602;28;20673;-82
2023/08/28 06:38:51;;;;;;;5.93;2.28;;;;;;;;;;5026228;28;20064;-82
2023/08/28 06:41:16;;;;;;;2.50;2.30;;;;;;;;;;5026776;28;20034;-82
2023/08/28 06:43:41;;;;;;;2.30;1.92;;;;;;;;;;5033736;28;20028;-82
2023/08/28 06:46:07;;;;;;;2.67;1.95;;;;;;;;;;5039509;28;20097;-82
2023/08/28 06:48:32;;;;;;;3.75;2.20;;;;;;;;;;5036535;28;20026;-82
2023/08/28 06:50:58;;;;;;;3.38;2.72;;;;;;;;;;5040597;28;20017;-83
2023/08/28 06:53:23;;;;;;;5.40;2.63;;;;;;;;;;5038205;28;20025;-82
2023/08/28 06:55:49;;;;;;;3.53;2.80;;;;;;;;;;5038763;28;20013;-82
2023/08/28 06:58:14;;;;;;;2.97;2.40;;;;;;;;;;5039935;28;20039;-83
2023/08/28 07:00:40;;;;;;;3.33;2.45;;;;;;;;;;5039922;28;20095;-82
2023/08/28 07:03:05;;;;;;;4.35;2.88;;;;;;;;;;5034580;28;20088;-81
2023/08/28 07:05:30;;;;;;;3.10;2.38;;;;;;;;;;5020970;28;20026;-82
2023/08/28 07:07:56;;;;;;;6.25;2.60;;;;;;;;;;5030252;28;20042;-82
2023/08/28 07:10:21;;;;;;;8.43;3.20;;;;;;;;;;5040240;28;20033;-82
2023/08/28 07:12:47;;;;;;;4.47;2.53;;;;;;;;;;5028981;28;20040;-83
2023/08/28 07:15:18;;;;;;;3.40;2.60;;;;;;;;;;5030616;28;20026;-81
2023/08/28 07:17:44;;;;;;;4.72;2.60;;;;;;;;;;5022351;28;20025;-83
2023/08/28 07:20:09;;;;;;;4.95;3.08;;;;;;;;;;5019948;28;20030;-82
2023/08/28 07:22:35;;;;;;;6.60;2.90;;;;;;;;;;5019680;28;20036;-82
2023/08/28 07:25:01;;;;;;;3.28;2.72;;;;;;;;;;5021401;28;20048;-81
2023/08/28 07:27:27;;;;;;;4.28;2.58;;;;;;;;;;5018940;28;20041;-82
2023/08/28 07:29:52;;;;;;;3.10;2.60;;;;;;;;;;5025360;28;20060;-81
2023/08/28 07:32:17;;;;;;;4.20;3.03;;;;;;;;;;5034208;28;20053;-81
2023/08/28 07:34:43;;;;;;;3.65;2.67;;;;;;;;;;5028685;28;20031;-80
2023/08/28 07:37:08;;;;;;;5.25;2.80;;;;;;;;;;5036502;28;20025;-81
2023/08/28 07:39:33;;;;;;;4.28;2.17;;;;;;;;;;5023999;28;20087;-80
2023/08/28 07:41:59;;;;;;;3.78;2.95;;;;;;;;;;5025544;28;20123;-81
2023/08/28 07:44:24;;;;;;;4.75;3.05;;;;;;;;;;5032544;28;20056;-81
2023/08/28 07:46:49;;;;;;;2.67;2.47;;;;;;;;;;5018129;28;20018;-83
2023/08/28 07:49:15;;;;;;;4.53;2.92;;;;;;;;;;5033426;28;20325;-82
2023/08/28 07:51:40;;;;;;;3.83;2.47;;;;;;;;;;5036011;28;20072;-81
2023/08/28 07:54:06;;;;;;;3.05;2.67;;;;;;;;;;5036103;28;20104;-81
2023/08/28 07:56:34;;;;;;;3.88;2.80;;;;;;;;;;5023180;28;20084;-82
2023/08/28 07:58:59;;;;;;;4.40;2.75;;;;;;;;;;5025300;28;20029;-82
2023/08/28 08:01:25;;;;;;;3.33;2.58;;;;;;;;;;5030535;28;20065;-80
2023/08/28 08:03:50;;;;;;;2.47;2.20;;;;;;;;;;5038506;28;20021;-81
2023/08/28 08:06:16;;;;;;;2.90;2.15;;;;;;;;;;5020453;28;20022;-82
2023/08/28 08:08:45;;;;;;;2.65;2.45;;;;;;;;;;5024327;28;20022;-80
2023/08/28 08:11:11;;;;;;;3.53;1.98;;;;;;;;;;5017259;28;20022;-81
2023/08/28 08:13:36;;;;;;;2.33;2.13;;;;;;;;;;5031635;28;20456;-81
2023/08/28 08:16:02;;;;;;;2.10;1.90;;;;;;;;;;5019286;28;20064;-82
2023/08/28 08:18:27;;;;;;;4.80;2.60;;;;;;;;;;5025720;28;20120;-82
2023/08/28 08:20:53;;;;;;;2.95;2.40;;;;;;;;;;5026924;28;20041;-79
2023/08/28 08:23:18;;;;;;;2.33;2.13;;;;;;;;;;5018663;28;20025;-82
2023/08/28 08:25:43;;;;;;;2.33;2.13;;;;;;;;;;5021364;28;20505;-82
2023/08/28 08:28:09;;;;;;;4.00;2.45;;;;;;;;;;5016665;28;20396;-80
2023/08/28 08:30:34;;;;;;;3.22;2.20;;;;;;;;;;5015500;28;20036;-82
2023/08/28 08:32:59;;;;;;;4.63;2.53;;;;;;;;;;5032711;28;20411;-81
2023/08/28 08:35:25;;;;;;;4.30;2.10;;;;;;;;;;5040968;28;20025;-81
2023/08/28 08:37:52;;;;;;;3.95;2.33;;;;;;;;;;5031061;28;20083;-80
2023/08/28 08:40:22;;;;;;;3.17;2.20;;;;;;;;;;5028060;28;20037;-80
2023/08/28 08:42:48;;;;;;;2.90;1.90;;;;;;;;;;5037483;28;20036;-81
2023/08/28 08:45:13;;;;;;;2.83;2.05;;;;;;;;;;5041010;28;20026;-81
2023/08/28 08:47:40;;;;;;;2.05;1.73;;;;;;;;;;5043000;28;20365;-81
2023/08/28 08:50:08;;;;;;;2.17;1.70;;;;;;;;;;5037224;28;20049;-81
2023/08/28 08:52:36;;;;;;;4.25;2.20;;;;;;;;;;5041555;28;20060;-80
2023/08/28 08:55:11;;;;;;;2.00;1.80;;;;;;;;;;5043279;28;20049;-81
2023/08/28 08:57:42;;;;;;;5.38;2.03;;;;;;;;;;5042686;28;20285;-80
2023/08/28 09:00:13;;;;;;;1.63;1.52;;;;;;;;;;5042312;28;20051;-81
2023/08/28 09:02:41;;;;;;;2.78;1.55;;;;;;;;;;5041995;28;20040;-81
2023/08/28 09:05:06;;;;;;;2.20;1.77;;;;;;;;;;5042069;28;20415;-81
2023/08/28 09:07:34;;;;;;;1.52;1.40;;;;;;;;;;5041735;28;20036;-80
2023/08/28 09:10:01;;;;;;;1.38;1.27;;;;;;;;;;5041738;28;20037;-81
2023/08/28 09:12:27;;;;;;;4.43;1.73;;;;;;;;;;5053220;28;20013;-80
2023/08/28 09:14:52;;;;;;;1.85;1.48;;;;;;;;;;5053676;28;20024;-81
2023/08/28 09:17:18;;;;;;;1.48;1.38;;;;;;;;;;5043497;28;20060;-80
2023/08/28 09:19:44;;;;;;;3.08;1.27;;;;;;;;;;5030471;28;20060;-80
2023/08/28 09:22:10;;;;;;;1.23;1.10;;;;;;;;;;5030994;28;20024;-80
2023/08/28 09:24:39;;;;;;;1.42;1.33;;;;;;;;;;5030412;28;20033;-81
2023/08/28 09:27:04;;;;;;;1.30;1.20;;;;;;;;;;5032236;28;20056;-80
2023/08/28 09:29:30;;;;;;;1.08;1.00;;;;;;;;;;5025348;28;20030;-79
2023/08/28 09:32:05;;;;;;;1.40;1.02;;;;;;;;;;5033029;28;20027;-80
2023/08/28 09:34:39;;;;;;;1.52;1.23;;;;;;;;;;5032978;28;20465;-80
2023/08/28 09:37:11;;;;;;;5.40;1.13;;;;;;;;;;5033232;28;20037;-80
2023/08/28 09:39:40;;;;;;;1.20;1.10;;;;;;;;;;5033587;28;20040;-80
2023/08/28 09:42:07;;;;;;;1.35;1.25;;;;;;;;;;5036821;28;20041;-80
2023/08/28 09:44:36;;;;;;;1.50;1.30;;;;;;;;;;5030964;28;20057;-80
2023/08/28 09:47:02;;;;;;;1.45;1.15;;;;;;;;;;5033973;28;20025;-79
2023/08/28 09:49:28;;;;;;;1.20;1.10;;;;;;;;;;5041508;28;20052;-81
2023/08/28 09:51:58;;;;;;;2.38;1.40;;;;;;;;;;5039646;28;20021;-80
2023/08/28 09:54:24;;;;;;;2.05;1.15;;;;;;;;;;5041956;28;20025;-80
2023/08/28 09:56:50;;;;;;;1.10;1.00;;;;;;;;;;5034715;28;20028;-82
2023/08/28 09:59:16;;;;;;;0.80;0.80;;;;;;;;;;5041982;28;20104;-81
2023/08/28 10:01:42;;;;;;;0.80;0.80;;;;;;;;;;5040451;28;20493;-81
2023/08/28 10:04:09;;;;;;;0.90;0.90;;;;;;;;;;5042159;28;20032;-81
2023/08/28 10:06:50;;;;;;;0.68;0.68;;;;;;;;;;5039541;28;20229;-81
2023/08/28 10:09:22;;;;;;;2.25;1.08;;;;;;;;;;5039175;28;20109;-81
2023/08/28 10:11:50;;;;;;;1.50;1.10;;;;;;;;;;5048900;28;20021;-81
2023/08/28 10:14:17;;;;;;;0.98;0.98;;;;;;;;;;5037541;28;20029;-80
2023/08/28 10:17:04;;;;;;;1.48;1.25;;;;;;;;;;5035979;28;20407;-80
2023/08/28 10:19:38;;;;;;;2.40;1.50;;;;;;;;;;5041077;28;20083;-80
2023/08/28 10:22:07;;;;;;;1.75;0.98;;;;;;;;;;5042887;28;20021;-81
2023/08/28 10:24:35;;;;;;;0.93;0.93;;;;;;;;;;5033531;28;20025;-81
2023/08/28 10:27:01;;;;;;;1.23;1.13;;;;;;;;;;5041526;28;20036;-81
2023/08/28 10:29:27;;;;;;;1.17;1.08;;;;;;;;;;5040454;28;20021;-81
2023/08/28 10:31:55;;;;;;;2.97;1.13;;;;;;;;;;5042095;28;20251;-81
2023/08/28 10:34:22;;;;;;;1.13;1.10;;;;;;;;;;5040712;28;20108;-81
2023/08/28 10:36:50;;;;;;;1.30;0.90;;;;;;;;;;5040858;28;20026;-81
2023/08/28 10:39:17;;;;;;;1.58;1.23;;;;;;;;;;5039460;28;20037;-81
2023/08/28 10:41:43;;;;;;;1.40;1.20;;;;;;;;;;5048563;28;20026;-81
2023/08/28 10:44:09;;;;;;;1.20;1.10;;;;;;;;;;5040539;28;20052;-81
2023/08/28 10:46:35;;;;;;;1.20;1.10;;;;;;;;;;5039270;28;20060;-81
2023/08/28 10:49:04;;;;;;;1.10;1.10;;;;;;;;;;5043519;28;20025;-80
2023/08/28 10:51:37;;;;;;;1.60;1.17;;;;;;;;;;5046645;28;20025;-82
2023/08/28 10:54:07;;;;;;;0.90;0.90;;;;;;;;;;5039631;28;20037;-82
2023/08/28 10:56:34;;;;;;;1.30;1.20;;;;;;;;;;5040429;28;20029;-81
2023/08/28 10:59:17;;;;;;;2.45;0.80;;;;;;;;;;5041843;28;20024;-81
2023/08/28 11:02:00;;;;;;;0.95;0.95;;;;;;;;;;5041160;28;20056;-81
2023/08/28 11:04:39;;;;;;;1.13;1.02;;;;;;;;;;5041126;28;20037;-82
2023/08/28 11:07:08;;;;;;;1.20;1.00;;;;;;;;;;5036123;28;20030;-81
2023/08/28 11:09:34;;;;;;;0.90;0.85;;;;;;;;;;5043652;28;20296;-81
2023/08/28 11:12:00;;;;;;;1.75;1.00;;;;;;;;;;5042333;28;20083;-81
2023/08/28 11:14:38;;;;;;;0.70;0.70;;;;;;;;;;5044751;28;20026;-82
2023/08/28 11:17:08;;;;;;;0.80;0.70;;;;;;;;;;5044204;28;20085;-80
2023/08/28 11:19:52;;;;;;;0.98;0.90;;;;;;;;;;5044014;28;20031;-80
2023/08/28 11:22:28;;;;;;;0.80;0.80;;;;;;;;;;5048862;28;20029;-81
2023/08/28 11:24:54;;;;;;;0.93;0.90;;;;;;;;;;5041816;28;20026;-81
2023/08/28 11:27:38;;;;;;;0.80;0.80;;;;;;;;;;5043072;28;20029;-82
2023/08/28 11:30:07;;;;;;;1.75;1.02;;;;;;;;;;5044009;28;20021;-82
2023/08/28 11:32:34;;;;;;;0.75;0.75;;;;;;;;;;5044005;28;20093;-81
2023/08/28 11:35:13;;;;;;;0.85;0.80;;;;;;;;;;5043757;28;20112;-81
2023/08/28 11:37:46;;;;;;;0.68;0.68;;;;;;;;;;5042858;28;20022;-81
2023/08/28 11:40:23;;;;;;;1.00;0.98;;;;;;;;;;5044626;28;20026;-81
2023/08/28 11:42:50;;;;;;;2.00;0.70;;;;;;;;;;5044409;28;20033;-83
2023/08/28 11:45:20;;;;;;;0.70;0.70;;;;;;;;;;5043814;28;20098;-81
2023/08/28 11:47:45;;;;;;;1.17;0.90;;;;;;;;;;5043317;28;20022;-81
2023/08/28 11:50:11;;;;;;;0.80;0.80;;;;;;;;;;5042404;28;20080;-81
2023/08/28 11:52:36;;;;;;;0.65;0.65;;;;;;;;;;5048175;28;20060;-81
2023/08/28 11:55:03;;;;;;;0.68;0.68;;;;;;;;;;5042885;28;20029;-82
2023/08/28 11:57:29;;;;;;;0.70;0.70;;;;;;;;;;5042966;28;20461;-80
2023/08/28 11:59:55;;;;;;;1.00;1.00;;;;;;;;;;5042990;28;20038;-80
2023/08/28 12:02:21;;;;;;;1.10;1.00;;;;;;;;;;5044319;28;20022;-81
2023/08/28 12:04:48;;;;;;;0.90;0.90;;;;;;;;;;5043515;28;20029;-81
2023/08/28 12:07:19;;;;;;;0.80;0.80;;;;;;;;;;5042881;28;20546;-82
2023/08/28 12:09:49;;;;;;;0.73;0.67;;;;;;;;;;5042398;28;20030;-81
2023/08/28 12:12:15;;;;;;;1.02;0.95;;;;;;;;;;5041667;28;20495;-81
2023/08/28 12:14:45;;;;;;;0.80;0.80;;;;;;;;;;5041810;28;20076;-81
2023/08/28 12:17:15;;;;;;;2.45;0.90;;;;;;;;;;5042094;28;20071;-81
2023/08/28 12:19:41;;;;;;;1.23;1.10;;;;;;;;;;5048532;28;20035;-81
2023/08/28 12:22:07;;;;;;;0.90;0.90;;;;;;;;;;5045168;28;20021;-82
2023/08/28 12:24:33;;;;;;;0.90;0.90;;;;;;;;;;5039876;28;20052;-82
2023/08/28 12:26:58;;;;;;;2.95;1.30;;;;;;;;;;5041262;28;20036;-82
2023/08/28 12:29:25;;;;;;;0.70;0.70;;;;;;;;;;5041974;28;20044;-82
2023/08/28 12:31:50;;;;;;;1.00;0.80;;;;;;;;;;5041720;28;20044;-82
2023/08/28 12:34:16;;;;;;;0.65;0.65;;;;;;;;;;5040401;28;20029;-81
2023/08/28 12:36:46;;;;;;;1.00;0.90;;;;;;;;;;5042306;28;20067;-82
2023/08/28 12:39:21;;;;;;;0.60;0.60;;;;;;;;;;5041656;28;20117;-81
2023/08/28 12:41:55;;;;;;;0.68;0.65;;;;;;;;;;5042457;28;20038;-81
2023/08/28 12:44:22;;;;;;;1.00;0.90;;;;;;;;;;5041620;28;20107;-82
2023/08/28 12:46:48;;;;;;;0.80;0.80;;;;;;;;;;5038669;28;20025;-80
2023/08/28 12:49:14;;;;;;;1.73;1.25;;;;;;;;;;5035508;28;20048;-79
2023/08/28 12:51:41;;;;;;;1.23;0.80;;;;;;;;;;5038817;28;20021;-80
2023/08/28 12:54:07;;;;;;;0.63;0.63;;;;;;;;;;5035413;28;20032;-81
2023/08/28 12:56:36;;;;;;;0.63;0.57;;;;;;;;;;5035329;28;20025;-80
2023/08/28 12:59:01;;;;;;;0.55;0.55;;;;;;;;;;5034917;28;20091;-81
2023/08/28 13:01:27;;;;;;;1.58;0.98;;;;;;;;;;5036382;28;20056;-81
2023/08/28 13:03:53;;;;;;;0.60;0.60;;;;;;;;;;5036958;28;20396;-80
2023/08/28 13:06:22;;;;;;;0.57;0.57;;;;;;;;;;5039269;28;20072;-81
2023/08/28 13:08:47;;;;;;;2.05;0.88;;;;;;;;;;5036461;28;20017;-81
2023/08/28 13:11:13;;;;;;;0.65;0.65;;;;;;;;;;5034405;28;20024;-79
2023/08/28 13:13:38;;;;;;;0.70;0.70;;;;;;;;;;5035892;28;20484;-79
2023/08/28 13:16:04;;;;;;;0.93;0.77;;;;;;;;;;5034735;28;20033;-82
2023/08/28 13:18:29;;;;;;;0.88;0.82;;;;;;;;;;5036120;28;20033;-81
2023/08/28 13:20:54;;;;;;;1.20;0.75;;;;;;;;;;5034753;28;20072;-81
2023/08/28 13:23:20;;;;;;;0.70;0.70;;;;;;;;;;5034537;28;20047;-79
2023/08/28 13:25:45;;;;;;;0.75;0.75;;;;;;;;;;5036453;28;20036;-80
2023/08/28 13:28:10;;;;;;;1.90;0.90;;;;;;;;;;5037625;28;20028;-81
2023/08/28 13:30:36;;;;;;;0.63;0.63;;;;;;;;;;5035440;28;20029;-80
2023/08/28 13:33:04;;;;;;;1.10;0.90;;;;;;;;;;5035645;28;20022;-81
2023/08/28 13:35:31;;;;;;;2.17;0.80;;;;;;;;;;5033096;28;20030;-81
2023/08/28 13:37:56;;;;;;;0.80;0.80;;;;;;;;;;5041810;28;20045;-80
2023/08/28 13:40:21;;;;;;;0.65;0.65;;;;;;;;;;5034862;28;20032;-79
2023/08/28 13:42:47;;;;;;;0.70;0.68;;;;;;;;;;5035587;28;20105;-79
2023/08/28 13:45:12;;;;;;;0.55;0.55;;;;;;;;;;5034156;28;20025;-81
2023/08/28 13:47:38;;;;;;;0.82;0.70;;;;;;;;;;5034354;28;20369;-81
2023/08/28 13:50:04;;;;;;;1.35;0.80;;;;;;;;;;5033930;28;20021;-81
2023/08/28 13:52:29;;;;;;;0.40;0.40;;;;;;;;;;5033797;28;20097;-81
2023/08/28 13:54:54;;;;;;;3.42;0.77;;;;;;;;;;5034806;28;20033;-81
2023/08/28 13:57:20;;;;;;;0.50;0.50;;;;;;;;;;5034595;28;20033;-81
2023/08/28 13:59:46;;;;;;;0.70;0.70;;;;;;;;;;5034895;28;20388;-81
2023/08/28 14:02:11;;;;;;;0.47;0.47;;;;;;;;;;5034977;28;20032;-80
2023/08/28 14:04:36;;;;;;;0.80;0.80;;;;;;;;;;5036422;28;20044;-81
2023/08/28 14:07:02;;;;;;;2.10;0.85;;;;;;;;;;5033739;28;20408;-81
2023/08/28 14:09:27;;;;;;;3.08;1.30;;;;;;;;;;5034771;28;20044;-81
2023/08/28 14:11:52;;;;;;;1.65;0.50;;;;;;;;;;5035532;28;20068;-82
2023/08/28 14:14:18;;;;;;;1.60;0.40;;;;;;;;;;5037786;28;20026;-82
2023/08/28 14:16:43;;;;;;;2.58;0.57;;;;;;;;;;5040659;28;20038;-81
2023/08/28 14:19:08;;;;;;;0.70;0.70;;;;;;;;;;5037571;28;20017;-81
2023/08/28 14:21:34;;;;;;;1.75;0.73;;;;;;;;;;5044664;28;20021;-81
2023/08/28 14:24:00;;;;;;;1.27;0.60;;;;;;;;;;5039486;28;20053;-82
2023/08/28 14:26:26;;;;;;;1.17;0.73;;;;;;;;;;5039053;28;20060;-82
2023/08/28 14:28:51;;;;;;;0.55;0.55;;;;;;;;;;5032414;28;20029;-82
2023/08/28 14:31:17;;;;;;;0.68;0.43;;;;;;;;;;5041083;28;20504;-82
2023/08/28 14:33:42;;;;;;;0.40;0.40;;;;;;;;;;5040037;28;20029;-82
2023/08/28 14:36:08;;;;;;;0.98;0.70;;;;;;;;;;5038249;28;20025;-82
2023/08/28 14:38:33;;;;;;;0.60;0.60;;;;;;;;;;5033807;28;20089;-81
2023/08/28 14:40:58;;;;;;;0.57;0.57;;;;;;;;;;5038930;28;20481;-83
2023/08/28 14:43:24;;;;;;;0.50;0.50;;;;;;;;;;5041531;28;20052;-82